Time;durP1;ratioP1;P1;durP2;ratioP2;P2;SDS_P1;SDS_P2;PMS_P1;PMS_P2;Temp;Humidity;BMP_temperature;BMP_pressure;BME280_temperature;BME280_humidity;BME280_pressure;Samples;Min_cycle;Max_cycle;Signal;HPM_P1;HPM_P2
2022/03/30 00:00:21;;;;;;;7.40;4.33;;;;;;;;;;4945320;28;20208;-60
2022/03/30 00:02:49;;;;;;;9.47;4.87;;;;;;;;;;4939544;29;20199;-60
2022/03/30 00:05:16;;;;;;;10.70;5.60;;;;;;;;;;4940690;29;20211;-59
2022/03/30 00:07:43;;;;;;;9.00;5.03;;;;;;;;;;4935411;29;20203;-58
2022/03/30 00:10:10;;;;;;;8.13;4.50;;;;;;;;;;4941138;28;20222;-60
2022/03/30 00:12:37;;;;;;;4.83;4.10;;;;;;;;;;4938395;29;20222;-59
2022/03/30 00:15:06;;;;;;;10.27;4.53;;;;;;;;;;4936770;29;20310;-59
2022/03/30 00:17:33;;;;;;;7.10;4.20;;;;;;;;;;4932543;29;20211;-59
2022/03/30 00:20:02;;;;;;;7.40;4.40;;;;;;;;;;4933557;29;20207;-59
2022/03/30 00:22:29;;;;;;;6.77;4.67;;;;;;;;;;4938702;29;20286;-59
2022/03/30 00:24:56;;;;;;;10.10;3.87;;;;;;;;;;4934486;29;20659;-59
2022/03/30 00:27:23;;;;;;;7.63;4.70;;;;;;;;;;4934656;29;20240;-59
2022/03/30 00:29:50;;;;;;;7.37;4.50;;;;;;;;;;4934157;29;20263;-59
2022/03/30 00:32:19;;;;;;;9.83;5.33;;;;;;;;;;4935010;29;20211;-59
2022/03/30 00:34:46;;;;;;;11.20;4.13;;;;;;;;;;4934181;29;20226;-59
2022/03/30 00:37:13;;;;;;;9.20;4.53;;;;;;;;;;4933728;29;20275;-58
2022/03/30 00:39:41;;;;;;;9.83;5.80;;;;;;;;;;4934764;29;20216;-59
2022/03/30 00:42:14;;;;;;;9.83;4.90;;;;;;;;;;4936320;29;20347;-59
2022/03/30 00:44:41;;;;;;;10.50;5.67;;;;;;;;;;4933555;29;20260;-59
2022/03/30 00:47:13;;;;;;;4.93;3.50;;;;;;;;;;4939218;29;20207;-59
2022/03/30 00:49:41;;;;;;;9.10;4.63;;;;;;;;;;4934065;29;20230;-59
2022/03/30 00:52:09;;;;;;;10.07;4.90;;;;;;;;;;4934317;29;20204;-59
2022/03/30 00:54:36;;;;;;;12.10;6.07;;;;;;;;;;4934432;29;20722;-59
2022/03/30 00:57:03;;;;;;;6.00;4.23;;;;;;;;;;4934655;29;20218;-59
2022/03/30 00:59:31;;;;;;;11.97;5.53;;;;;;;;;;4938907;29;20269;-59
2022/03/30 01:01:59;;;;;;;6.27;4.33;;;;;;;;;;4933379;29;20215;-59
2022/03/30 01:04:27;;;;;;;12.53;6.27;;;;;;;;;;4935214;29;20266;-59
2022/03/30 01:06:55;;;;;;;7.67;5.43;;;;;;;;;;4937812;29;20223;-61
2022/03/30 01:09:23;;;;;;;9.33;4.80;;;;;;;;;;4937623;29;20221;-59
2022/03/30 01:11:51;;;;;;;8.63;5.40;;;;;;;;;;4933903;29;21452;-59
2022/03/30 01:14:19;;;;;;;10.50;5.37;;;;;;;;;;4941188;29;20227;-59
2022/03/30 01:16:46;;;;;;;6.53;4.43;;;;;;;;;;4932754;29;20243;-59
2022/03/30 01:19:14;;;;;;;5.80;4.23;;;;;;;;;;4937663;29;20210;-59
2022/03/30 01:21:43;;;;;;;12.33;5.73;;;;;;;;;;4933920;28;20207;-59
2022/03/30 01:24:12;;;;;;;9.53;5.97;;;;;;;;;;4949018;28;20199;-59
2022/03/30 01:26:40;;;;;;;7.73;5.63;;;;;;;;;;4948915;29;20435;-59
2022/03/30 01:34:35;;;;;;;11.37;5.87;;;;;;;;;;4938349;29;20250;-60
2022/03/30 01:37:04;;;;;;;11.40;5.80;;;;;;;;;;4942630;29;20761;-61
2022/03/30 01:39:31;;;;;;;7.47;5.40;;;;;;;;;;4946254;29;20207;-59
2022/03/30 01:41:58;;;;;;;12.40;6.30;;;;;;;;;;4948889;29;20267;-60
2022/03/30 01:44:25;;;;;;;8.27;5.43;;;;;;;;;;4946578;29;20203;-59
2022/03/30 01:46:52;;;;;;;11.37;5.70;;;;;;;;;;4949831;29;20349;-59
2022/03/30 01:49:21;;;;;;;11.20;6.13;;;;;;;;;;4948586;29;20258;-59
2022/03/30 01:51:49;;;;;;;12.20;6.57;;;;;;;;;;4944584;29;20215;-59
2022/03/30 01:54:17;;;;;;;12.20;6.50;;;;;;;;;;4948782;29;20318;-59
2022/03/30 01:56:44;;;;;;;8.93;6.03;;;;;;;;;;4946985;29;20219;-59
2022/03/30 01:59:11;;;;;;;8.43;5.43;;;;;;;;;;4946617;29;20215;-59
2022/03/30 02:01:38;;;;;;;11.50;6.53;;;;;;;;;;4944254;29;20833;-59
2022/03/30 02:04:06;;;;;;;10.87;6.30;;;;;;;;;;4944670;29;20686;-59
2022/03/30 02:06:34;;;;;;;11.33;5.83;;;;;;;;;;4948640;29;20294;-59
2022/03/30 02:09:01;;;;;;;11.83;6.30;;;;;;;;;;4947228;29;20301;-59
2022/03/30 02:11:29;;;;;;;13.30;6.37;;;;;;;;;;4946079;29;20274;-59
2022/03/30 02:13:56;;;;;;;11.47;6.57;;;;;;;;;;4947078;29;20645;-59
2022/03/30 02:16:23;;;;;;;15.40;6.47;;;;;;;;;;4945700;29;20207;-59
2022/03/30 02:18:50;;;;;;;11.10;5.43;;;;;;;;;;4949683;29;20839;-59
2022/03/30 02:21:18;;;;;;;12.13;5.77;;;;;;;;;;4946586;29;20674;-60
2022/03/30 02:23:46;;;;;;;13.40;5.27;;;;;;;;;;4948435;29;20273;-59
2022/03/30 02:26:13;;;;;;;13.43;6.33;;;;;;;;;;4945957;29;20277;-59
2022/03/30 02:28:42;;;;;;;13.67;6.40;;;;;;;;;;4945805;29;20251;-59
2022/03/30 02:31:09;;;;;;;13.87;6.57;;;;;;;;;;4948516;28;20234;-59
2022/03/30 02:33:36;;;;;;;10.87;6.20;;;;;;;;;;4951253;29;20258;-59
2022/03/30 02:36:03;;;;;;;12.10;6.50;;;;;;;;;;4948889;29;20340;-59
2022/03/30 02:38:30;;;;;;;10.33;6.93;;;;;;;;;;4948694;29;20208;-59
2022/03/30 02:40:57;;;;;;;10.83;6.70;;;;;;;;;;4950868;29;20258;-59
2022/03/30 02:43:24;;;;;;;10.43;6.50;;;;;;;;;;4952724;29;20717;-59
2022/03/30 02:45:53;;;;;;;10.80;6.40;;;;;;;;;;4950811;29;20208;-60
2022/03/30 02:48:21;;;;;;;12.87;6.73;;;;;;;;;;4950893;29;20214;-60
2022/03/30 02:50:49;;;;;;;10.33;6.33;;;;;;;;;;4953237;29;20255;-60
2022/03/30 02:53:16;;;;;;;11.00;6.67;;;;;;;;;;4942217;29;20228;-59
2022/03/30 02:55:44;;;;;;;13.03;6.60;;;;;;;;;;4941361;29;20207;-59
2022/03/30 02:58:11;;;;;;;11.83;6.87;;;;;;;;;;4937437;29;20203;-59
2022/03/30 03:00:38;;;;;;;15.20;7.90;;;;;;;;;;4943379;29;20214;-60
2022/03/30 03:03:09;;;;;;;14.83;7.73;;;;;;;;;;4951576;29;20207;-59
2022/03/30 03:05:36;;;;;;;15.13;7.50;;;;;;;;;;4951523;29;20215;-60
2022/03/30 03:08:03;;;;;;;12.60;7.33;;;;;;;;;;4952011;29;20752;-60
2022/03/30 03:10:30;;;;;;;16.67;7.17;;;;;;;;;;4940477;29;20226;-60
2022/03/30 03:12:57;;;;;;;13.53;7.10;;;;;;;;;;4946515;29;20263;-57
2022/03/30 03:15:24;;;;;;;10.77;6.97;;;;;;;;;;4950205;29;20646;-59
2022/03/30 03:17:52;;;;;;;14.20;6.50;;;;;;;;;;4943768;29;20207;-60
2022/03/30 03:20:20;;;;;;;10.83;6.47;;;;;;;;;;4937347;29;20203;-60
2022/03/30 03:22:47;;;;;;;16.10;7.50;;;;;;;;;;4937103;29;20211;-59
2022/03/30 03:25:14;;;;;;;12.23;6.63;;;;;;;;;;4932568;29;20224;-60
2022/03/30 03:27:41;;;;;;;13.63;6.97;;;;;;;;;;4945550;29;20247;-59
2022/03/30 03:30:09;;;;;;;13.33;7.20;;;;;;;;;;4951821;29;20219;-59
2022/03/30 03:32:36;;;;;;;11.40;6.73;;;;;;;;;;4952483;29;20262;-59
2022/03/30 03:35:04;;;;;;;14.23;7.57;;;;;;;;;;4953460;29;20281;-60
2022/03/30 03:37:32;;;;;;;13.73;6.73;;;;;;;;;;4945851;29;20210;-59
2022/03/30 03:39:59;;;;;;;9.57;6.57;;;;;;;;;;4935125;29;20290;-59
2022/03/30 03:42:26;;;;;;;17.43;7.67;;;;;;;;;;4940773;29;20211;-60
2022/03/30 03:44:53;;;;;;;15.60;7.70;;;;;;;;;;4933495;29;20211;-60
2022/03/30 03:47:20;;;;;;;15.20;7.70;;;;;;;;;;4935884;29;20649;-60
2022/03/30 03:49:47;;;;;;;11.23;7.23;;;;;;;;;;4951500;29;20214;-60
2022/03/30 03:52:14;;;;;;;18.17;7.13;;;;;;;;;;4940881;29;20212;-60
2022/03/30 03:54:43;;;;;;;14.33;8.03;;;;;;;;;;4933253;29;20224;-60
2022/03/30 03:57:10;;;;;;;18.73;7.63;;;;;;;;;;4940617;29;20207;-60
2022/03/30 03:59:37;;;;;;;15.80;6.77;;;;;;;;;;4951470;29;20217;-59
2022/03/30 04:02:07;;;;;;;12.97;7.40;;;;;;;;;;4944951;29;20558;-59
2022/03/30 04:04:34;;;;;;;16.37;7.93;;;;;;;;;;4952357;29;20540;-58
2022/03/30 04:07:01;;;;;;;18.63;8.10;;;;;;;;;;4948048;29;20258;-58
2022/03/30 04:09:28;;;;;;;20.37;9.10;;;;;;;;;;4952500;29;20270;-59
2022/03/30 04:11:56;;;;;;;17.57;6.63;;;;;;;;;;4946696;29;20203;-59
2022/03/30 04:14:23;;;;;;;15.17;7.00;;;;;;;;;;4938216;29;20715;-59
2022/03/30 04:16:50;;;;;;;19.03;9.23;;;;;;;;;;4948237;29;20211;-59
2022/03/30 04:19:17;;;;;;;13.13;5.73;;;;;;;;;;4951945;29;20211;-59
2022/03/30 04:21:45;;;;;;;14.63;7.50;;;;;;;;;;4942100;29;20214;-59
2022/03/30 04:24:12;;;;;;;11.50;6.80;;;;;;;;;;4935063;29;20804;-60
2022/03/30 04:26:39;;;;;;;19.63;9.43;;;;;;;;;;4944345;29;20227;-59
2022/03/30 04:29:08;;;;;;;14.97;7.77;;;;;;;;;;4951965;29;20223;-59
2022/03/30 04:31:35;;;;;;;14.07;7.00;;;;;;;;;;4947196;29;20207;-59
2022/03/30 04:34:02;;;;;;;17.40;6.40;;;;;;;;;;4945869;29;20299;-59
2022/03/30 04:36:29;;;;;;;7.20;3.07;;;;;;;;;;4935567;29;20215;-60
2022/03/30 04:38:56;;;;;;;15.43;6.90;;;;;;;;;;4937141;29;20203;-59
2022/03/30 04:41:23;;;;;;;12.03;6.53;;;;;;;;;;4937194;29;20207;-59
2022/03/30 04:43:51;;;;;;;12.73;6.13;;;;;;;;;;4936283;29;20200;-59
2022/03/30 04:46:19;;;;;;;12.83;7.40;;;;;;;;;;4938800;29;20678;-59
2022/03/30 04:48:46;;;;;;;19.40;7.07;;;;;;;;;;4933025;29;20274;-59
2022/03/30 04:51:13;;;;;;;17.33;8.20;;;;;;;;;;4950453;29;20607;-59
2022/03/30 04:53:40;;;;;;;13.90;7.67;;;;;;;;;;4946161;29;20210;-60
2022/03/30 04:56:07;;;;;;;12.10;7.43;;;;;;;;;;4943996;28;20214;-60
2022/03/30 04:58:35;;;;;;;18.13;7.63;;;;;;;;;;4950661;29;20239;-59
2022/03/30 05:01:02;;;;;;;15.50;7.53;;;;;;;;;;4944019;29;20686;-60
2022/03/30 05:03:30;;;;;;;13.00;6.97;;;;;;;;;;4931953;29;20273;-60
2022/03/30 05:05:57;;;;;;;16.63;8.13;;;;;;;;;;4938613;28;20408;-60
2022/03/30 05:08:24;;;;;;;11.20;7.13;;;;;;;;;;4935277;29;20926;-59
2022/03/30 05:10:51;;;;;;;13.80;6.43;;;;;;;;;;4932080;29;20212;-60
2022/03/30 05:13:18;;;;;;;14.60;7.03;;;;;;;;;;4933892;29;20596;-60
2022/03/30 05:15:45;;;;;;;21.40;7.90;;;;;;;;;;4934081;29;20235;-59
2022/03/30 05:18:12;;;;;;;19.77;7.80;;;;;;;;;;4934399;29;20208;-60
2022/03/30 05:20:43;;;;;;;16.97;8.73;;;;;;;;;;4935334;29;20211;-59
2022/03/30 05:23:10;;;;;;;20.50;7.63;;;;;;;;;;4935249;29;20211;-59
2022/03/30 05:25:37;;;;;;;15.93;8.33;;;;;;;;;;4931795;29;20314;-59
2022/03/30 05:28:04;;;;;;;20.63;8.77;;;;;;;;;;4937455;29;20765;-59
2022/03/30 05:30:31;;;;;;;17.87;8.70;;;;;;;;;;4938261;29;20216;-59
2022/03/30 05:32:58;;;;;;;13.73;7.40;;;;;;;;;;4932290;29;20211;-59
2022/03/30 05:35:25;;;;;;;18.33;7.00;;;;;;;;;;4936101;29;20278;-58
2022/03/30 05:37:54;;;;;;;12.27;6.77;;;;;;;;;;4943329;29;20215;-59
2022/03/30 05:40:22;;;;;;;19.13;9.47;;;;;;;;;;4938275;29;20212;-60
2022/03/30 05:43:00;;;;;;;18.47;8.47;;;;;;;;;;4940397;29;20203;-60
2022/03/30 05:45:28;;;;;;;20.17;9.20;;;;;;;;;;4935087;29;20674;-59
2022/03/30 05:47:55;;;;;;;17.87;10.00;;;;;;;;;;4939202;29;20215;-59
2022/03/30 05:50:23;;;;;;;20.53;7.53;;;;;;;;;;4931199;29;20357;-59
2022/03/30 05:52:51;;;;;;;17.17;7.50;;;;;;;;;;4934623;29;20658;-60
2022/03/30 05:55:19;;;;;;;23.77;9.10;;;;;;;;;;4932540;29;20219;-60
2022/03/30 05:57:46;;;;;;;15.10;7.60;;;;;;;;;;4931811;29;20478;-60
2022/03/30 06:00:14;;;;;;;17.60;9.03;;;;;;;;;;4946172;29;20667;-59
2022/03/30 06:02:41;;;;;;;23.40;8.77;;;;;;;;;;4936624;29;20262;-58
2022/03/30 06:05:09;;;;;;;18.43;9.60;;;;;;;;;;4944061;29;20214;-59
2022/03/30 06:07:36;;;;;;;17.97;8.87;;;;;;;;;;4933884;29;20595;-58
2022/03/30 06:10:04;;;;;;;8.67;5.97;;;;;;;;;;4936057;29;20754;-58
2022/03/30 06:12:32;;;;;;;21.20;8.87;;;;;;;;;;4941433;29;20214;-58
2022/03/30 06:14:59;;;;;;;17.80;8.93;;;;;;;;;;4940187;29;20630;-59
2022/03/30 06:17:27;;;;;;;14.73;6.03;;;;;;;;;;4949093;29;20318;-58
2022/03/30 06:19:57;;;;;;;15.13;7.27;;;;;;;;;;4939818;29;20580;-59
2022/03/30 06:22:27;;;;;;;14.70;7.47;;;;;;;;;;4940534;29;20239;-59
2022/03/30 06:24:54;;;;;;;21.23;8.30;;;;;;;;;;4935758;29;20227;-59
2022/03/30 06:27:22;;;;;;;19.67;9.20;;;;;;;;;;4935608;29;20721;-60
2022/03/30 06:29:50;;;;;;;16.57;8.13;;;;;;;;;;4946333;29;20216;-60
2022/03/30 06:32:18;;;;;;;20.47;10.20;;;;;;;;;;4949193;29;20270;-59
2022/03/30 06:34:45;;;;;;;21.10;8.97;;;;;;;;;;4939538;29;20231;-59
2022/03/30 06:37:12;;;;;;;20.13;10.00;;;;;;;;;;4935292;29;20208;-59
2022/03/30 06:39:39;;;;;;;22.40;8.93;;;;;;;;;;4934255;29;20260;-59
2022/03/30 06:42:07;;;;;;;15.67;8.23;;;;;;;;;;4936456;29;20219;-59
2022/03/30 06:44:34;;;;;;;17.03;8.17;;;;;;;;;;4934149;29;20972;-59
2022/03/30 06:47:02;;;;;;;20.23;9.13;;;;;;;;;;4935731;29;20211;-59
2022/03/30 06:49:29;;;;;;;21.90;9.57;;;;;;;;;;4942275;29;20314;-59
2022/03/30 06:51:56;;;;;;;20.40;9.50;;;;;;;;;;4936341;29;20204;-59
2022/03/30 06:54:23;;;;;;;18.20;9.43;;;;;;;;;;4946560;29;20274;-59
2022/03/30 06:56:51;;;;;;;21.20;9.40;;;;;;;;;;4948203;29;20211;-59
2022/03/30 06:59:18;;;;;;;7.97;4.03;;;;;;;;;;4938848;29;20657;-59
2022/03/30 07:01:46;;;;;;;10.37;5.00;;;;;;;;;;4942667;29;20711;-59
2022/03/30 07:04:14;;;;;;;22.13;7.10;;;;;;;;;;4933921;29;20302;-59
2022/03/30 07:10:14;;;;;;;15.17;7.07;;;;;;;;;;4941614;29;20215;-59
2022/03/30 07:12:13;;;;;;;19.37;8.87;;;;;;;;;;4938833;29;20331;-59
2022/03/30 07:14:40;;;;;;;13.30;5.27;;;;;;;;;;4943287;29;20389;-60
2022/03/30 07:17:07;;;;;;;16.00;6.70;;;;;;;;;;4937913;29;20211;-60
2022/03/30 07:19:37;;;;;;;18.57;8.87;;;;;;;;;;4943289;28;20282;-60
2022/03/30 07:22:04;;;;;;;17.07;8.57;;;;;;;;;;4948969;29;20210;-59
2022/03/30 07:24:31;;;;;;;19.93;9.47;;;;;;;;;;4935822;29;20310;-60
2022/03/30 07:26:58;;;;;;;12.27;4.83;;;;;;;;;;4937442;29;20267;-60
2022/03/30 07:29:25;;;;;;;24.10;10.17;;;;;;;;;;4941666;29;20203;-58
2022/03/30 07:31:52;;;;;;;20.87;8.90;;;;;;;;;;4935243;29;20219;-59
2022/03/30 07:34:19;;;;;;;17.50;8.30;;;;;;;;;;4946876;29;20736;-58
2022/03/30 07:36:48;;;;;;;19.30;10.37;;;;;;;;;;4948675;29;20219;-58
2022/03/30 07:39:15;;;;;;;19.50;8.83;;;;;;;;;;4941510;29;20298;-58
2022/03/30 07:41:42;;;;;;;26.90;10.60;;;;;;;;;;4937806;29;20633;-58
2022/03/30 07:44:09;;;;;;;17.97;7.07;;;;;;;;;;4942407;29;20219;-58
2022/03/30 07:46:36;;;;;;;18.30;9.20;;;;;;;;;;4935187;29;20578;-59
2022/03/30 07:49:04;;;;;;;25.13;10.73;;;;;;;;;;4934505;29;20208;-60
2022/03/30 07:51:31;;;;;;;24.60;9.27;;;;;;;;;;4935364;29;20208;-59
2022/03/30 07:53:59;;;;;;;23.03;10.50;;;;;;;;;;4940546;29;20204;-59
2022/03/30 07:56:26;;;;;;;20.33;10.00;;;;;;;;;;4938500;29;20230;-59
2022/03/30 07:58:56;;;;;;;22.87;9.93;;;;;;;;;;4936847;29;20208;-59
2022/03/30 08:01:23;;;;;;;15.97;8.23;;;;;;;;;;4938167;29;20373;-59
2022/03/30 08:03:50;;;;;;;23.77;10.57;;;;;;;;;;4943463;29;20670;-60
2022/03/30 08:06:17;;;;;;;22.63;9.83;;;;;;;;;;4934819;29;20203;-60
2022/03/30 08:08:44;;;;;;;21.77;10.60;;;;;;;;;;4931911;29;20263;-60
2022/03/30 08:11:13;;;;;;;21.90;10.53;;;;;;;;;;4938810;29;20259;-60
2022/03/30 08:13:40;;;;;;;27.23;10.00;;;;;;;;;;4942836;29;20212;-60
2022/03/30 08:16:07;;;;;;;17.70;8.70;;;;;;;;;;4937975;29;20234;-60
2022/03/30 08:18:34;;;;;;;25.47;11.10;;;;;;;;;;4932758;29;20216;-60
2022/03/30 08:23:46;;;;;;;18.77;8.77;;;;;;;;;;4939355;29;20210;-59
2022/03/30 08:26:15;;;;;;;18.93;9.03;;;;;;;;;;4940390;29;20227;-59
2022/03/30 08:28:42;;;;;;;25.10;10.20;;;;;;;;;;4935528;29;20247;-59
2022/03/30 08:31:09;;;;;;;24.97;10.57;;;;;;;;;;4941132;29;20960;-59
2022/03/30 08:33:36;;;;;;;21.30;10.63;;;;;;;;;;4932575;29;20212;-59
2022/03/30 08:36:03;;;;;;;24.20;9.03;;;;;;;;;;4942557;29;20231;-59
2022/03/30 08:38:30;;;;;;;23.33;10.97;;;;;;;;;;4932884;29;20214;-59
2022/03/30 08:40:58;;;;;;;19.50;10.13;;;;;;;;;;4937514;29;20207;-59
2022/03/30 08:43:27;;;;;;;20.10;9.87;;;;;;;;;;4937714;29;20223;-60
2022/03/30 08:45:56;;;;;;;26.13;11.03;;;;;;;;;;4936375;29;20270;-60
2022/03/30 08:48:23;;;;;;;20.13;10.40;;;;;;;;;;4947331;29;20207;-60
2022/03/30 08:50:51;;;;;;;23.67;10.60;;;;;;;;;;4946604;29;20593;-60
2022/03/30 08:53:19;;;;;;;24.07;11.00;;;;;;;;;;4941764;29;20254;-60
2022/03/30 08:55:46;;;;;;;24.57;10.33;;;;;;;;;;4942311;29;20224;-60
2022/03/30 08:58:13;;;;;;;20.57;10.07;;;;;;;;;;4943250;29;20753;-59
2022/03/30 09:00:41;;;;;;;22.30;10.00;;;;;;;;;;4937232;29;20216;-60
2022/03/30 09:03:08;;;;;;;22.07;9.53;;;;;;;;;;4931820;29;20234;-58
2022/03/30 09:05:37;;;;;;;19.17;9.87;;;;;;;;;;4944919;29;20292;-58
2022/03/30 09:08:14;;;;;;;17.37;9.07;;;;;;;;;;4947804;29;20298;-58
2022/03/30 09:10:42;;;;;;;22.43;10.97;;;;;;;;;;4937644;29;20296;-58
2022/03/30 09:13:10;;;;;;;20.23;9.83;;;;;;;;;;4940507;29;20216;-58
2022/03/30 09:15:38;;;;;;;14.87;7.80;;;;;;;;;;4940802;29;20222;-58
2022/03/30 09:18:07;;;;;;;17.57;8.73;;;;;;;;;;4936754;29;20214;-59
2022/03/30 09:20:35;;;;;;;18.53;9.87;;;;;;;;;;4938845;29;20212;-58
2022/03/30 09:23:02;;;;;;;18.13;9.30;;;;;;;;;;4947213;29;20214;-58
2022/03/30 09:25:31;;;;;;;22.03;10.57;;;;;;;;;;4946313;29;20226;-59
2022/03/30 09:27:59;;;;;;;12.77;7.63;;;;;;;;;;4943345;29;20230;-59
2022/03/30 09:30:28;;;;;;;21.17;10.53;;;;;;;;;;4945359;29;20257;-59
2022/03/30 09:32:56;;;;;;;16.47;8.97;;;;;;;;;;4935774;29;20204;-59
2022/03/30 09:35:27;;;;;;;21.80;11.13;;;;;;;;;;4937721;29;20219;-59
2022/03/30 09:38:04;;;;;;;23.67;10.33;;;;;;;;;;4946422;29;20207;-59
2022/03/30 09:40:36;;;;;;;21.60;10.60;;;;;;;;;;4934818;29;20200;-59
2022/03/30 09:43:13;;;;;;;20.70;9.10;;;;;;;;;;4934522;29;20250;-59
2022/03/30 09:45:40;;;;;;;24.17;11.10;;;;;;;;;;4945785;29;20262;-59
2022/03/30 09:48:14;;;;;;;16.43;9.00;;;;;;;;;;4944812;29;20207;-59
2022/03/30 09:50:47;;;;;;;21.20;9.37;;;;;;;;;;4936735;29;20207;-59
2022/03/30 09:53:15;;;;;;;17.57;9.43;;;;;;;;;;4933429;29;20235;-59
2022/03/30 09:55:56;;;;;;;21.50;11.27;;;;;;;;;;4941275;29;20227;-59
2022/03/30 09:58:23;;;;;;;16.77;7.47;;;;;;;;;;4942625;29;20274;-58
2022/03/30 10:01:03;;;;;;;17.17;8.20;;;;;;;;;;4941177;29;20234;-60
2022/03/30 10:03:37;;;;;;;18.17;9.73;;;;;;;;;;4933998;29;20615;-59
2022/03/30 10:06:06;;;;;;;19.87;8.47;;;;;;;;;;4932541;29;20203;-60
2022/03/30 10:08:33;;;;;;;19.80;10.27;;;;;;;;;;4931203;29;20742;-59
2022/03/30 10:11:01;;;;;;;17.67;9.73;;;;;;;;;;4935502;29;20203;-60
2022/03/30 10:13:28;;;;;;;24.17;9.40;;;;;;;;;;4933105;29;20207;-60
2022/03/30 10:15:55;;;;;;;20.43;10.70;;;;;;;;;;4949359;29;20230;-59
2022/03/30 10:18:23;;;;;;;15.03;8.50;;;;;;;;;;4938996;29;20219;-58
2022/03/30 10:20:52;;;;;;;15.27;7.53;;;;;;;;;;4951949;28;20681;-59
2022/03/30 10:23:29;;;;;;;17.90;8.57;;;;;;;;;;4969544;28;20218;-59
2022/03/30 10:26:07;;;;;;;16.03;8.47;;;;;;;;;;4955670;28;20231;-59
2022/03/30 10:28:45;;;;;;;22.57;10.27;;;;;;;;;;4936247;29;20765;-59
2022/03/30 10:31:13;;;;;;;19.57;8.77;;;;;;;;;;4945198;29;20223;-59
2022/03/30 10:33:41;;;;;;;24.97;10.23;;;;;;;;;;4949844;29;20641;-58
2022/03/30 10:36:23;;;;;;;18.90;10.13;;;;;;;;;;4938724;29;20231;-58
2022/03/30 10:39:09;;;;;;;5.33;3.17;;;;;;;;;;4949484;29;20208;-58
2022/03/30 10:41:50;;;;;;;15.90;7.47;;;;;;;;;;4950173;29;20223;-58
2022/03/30 10:44:36;;;;;;;19.13;8.43;;;;;;;;;;4949967;29;20681;-59
2022/03/30 10:47:13;;;;;;;17.57;9.57;;;;;;;;;;4936148;29;20302;-61
2022/03/30 10:49:44;;;;;;;17.60;8.53;;;;;;;;;;4930833;29;20571;-58
2022/03/30 10:52:28;;;;;;;18.83;9.17;;;;;;;;;;4931104;29;20215;-59
2022/03/30 10:55:10;;;;;;;16.70;8.67;;;;;;;;;;4934065;29;20219;-60
2022/03/30 10:57:50;;;;;;;20.80;8.87;;;;;;;;;;4938750;29;20231;-59
2022/03/30 11:00:18;;;;;;;18.63;9.43;;;;;;;;;;4951900;29;20687;-59
2022/03/30 11:02:45;;;;;;;15.93;8.10;;;;;;;;;;4941151;29;20814;-60
2022/03/30 11:05:14;;;;;;;17.27;8.70;;;;;;;;;;4939559;29;20212;-59
2022/03/30 11:07:41;;;;;;;15.57;8.20;;;;;;;;;;4952848;29;20250;-59
2022/03/30 11:10:15;;;;;;;22.93;10.47;;;;;;;;;;4953258;29;20238;-58
2022/03/30 11:12:57;;;;;;;16.20;8.07;;;;;;;;;;4939588;29;20649;-59
2022/03/30 11:15:26;;;;;;;14.10;8.33;;;;;;;;;;4946388;29;20203;-58
2022/03/30 11:17:53;;;;;;;12.37;7.07;;;;;;;;;;4956152;28;20772;-58
2022/03/30 11:20:23;;;;;;;15.13;7.97;;;;;;;;;;4972206;28;20766;-59
2022/03/30 11:22:51;;;;;;;15.30;7.30;;;;;;;;;;4957888;28;20237;-58
2022/03/30 11:25:19;;;;;;;16.77;8.57;;;;;;;;;;4939419;29;20265;-58
2022/03/30 11:28:08;;;;;;;14.00;5.97;;;;;;;;;;4940415;29;20250;-58
2022/03/30 11:30:39;;;;;;;13.80;8.07;;;;;;;;;;4938868;29;20218;-60
2022/03/30 11:33:19;;;;;;;12.35;6.53;;;;;;;;;;4946652;29;20969;-59
2022/03/30 11:35:48;;;;;;;14.07;7.33;;;;;;;;;;4940803;29;20223;-59
2022/03/30 11:38:21;;;;;;;16.87;8.03;;;;;;;;;;4941562;29;20215;-59
2022/03/30 11:40:49;;;;;;;17.27;7.10;;;;;;;;;;4946344;29;20211;-59
2022/03/30 11:43:18;;;;;;;8.67;5.40;;;;;;;;;;4940617;29;20591;-59
2022/03/30 11:45:47;;;;;;;11.63;6.73;;;;;;;;;;4948355;29;20282;-58
2022/03/30 11:48:15;;;;;;;7.50;4.10;;;;;;;;;;4948699;29;20215;-61
2022/03/30 11:50:42;;;;;;;10.07;5.70;;;;;;;;;;4944430;28;20220;-60
2022/03/30 11:53:11;;;;;;;6.10;3.47;;;;;;;;;;4931901;29;20286;-58
2022/03/30 11:55:39;;;;;;;9.47;5.03;;;;;;;;;;4932486;29;20218;-59
2022/03/30 11:58:06;;;;;;;10.07;6.47;;;;;;;;;;4944308;29;20253;-59
2022/03/30 12:00:34;;;;;;;8.47;4.83;;;;;;;;;;4942879;29;20215;-59
2022/03/30 12:03:03;;;;;;;11.83;6.43;;;;;;;;;;4932480;29;20565;-59
2022/03/30 12:05:31;;;;;;;3.47;3.17;;;;;;;;;;4936307;28;20214;-59
2022/03/30 12:08:00;;;;;;;9.33;5.27;;;;;;;;;;4929625;29;20219;-59
2022/03/30 12:10:28;;;;;;;9.70;5.97;;;;;;;;;;4930047;29;20219;-59
2022/03/30 12:12:55;;;;;;;10.70;6.43;;;;;;;;;;4932157;29;20216;-59
2022/03/30 12:15:22;;;;;;;10.40;5.83;;;;;;;;;;4934869;29;20215;-59
2022/03/30 12:17:54;;;;;;;9.80;5.70;;;;;;;;;;4928859;29;20632;-59
2022/03/30 12:20:25;;;;;;;12.03;6.83;;;;;;;;;;4941993;29;20211;-60
2022/03/30 12:22:58;;;;;;;11.70;6.10;;;;;;;;;;4936487;29;20645;-59
2022/03/30 12:25:26;;;;;;;14.90;6.77;;;;;;;;;;4941874;29;20227;-59
2022/03/30 12:27:53;;;;;;;8.70;4.83;;;;;;;;;;4957881;28;20437;-60
2022/03/30 12:30:20;;;;;;;9.83;6.17;;;;;;;;;;4935438;29;20207;-59
2022/03/30 12:32:47;;;;;;;9.47;6.07;;;;;;;;;;4947627;29;20685;-60
2022/03/30 12:35:16;;;;;;;9.33;5.13;;;;;;;;;;4942299;29;20562;-59
2022/03/30 12:37:46;;;;;;;5.33;3.50;;;;;;;;;;4946600;29;20233;-59
2022/03/30 12:40:14;;;;;;;6.37;4.63;;;;;;;;;;4933112;29;20207;-59
2022/03/30 12:42:43;;;;;;;6.73;3.47;;;;;;;;;;4936303;29;20271;-59
2022/03/30 12:45:11;;;;;;;9.87;5.40;;;;;;;;;;4944193;28;20322;-59
2022/03/30 12:47:40;;;;;;;6.90;4.23;;;;;;;;;;4950200;28;20203;-59
2022/03/30 12:50:08;;;;;;;5.57;3.50;;;;;;;;;;4946715;29;20725;-60
2022/03/30 12:52:37;;;;;;;3.80;3.07;;;;;;;;;;4947079;29;20218;-59
2022/03/30 12:55:19;;;;;;;6.93;4.80;;;;;;;;;;4947190;29;20309;-60
2022/03/30 12:57:53;;;;;;;6.87;3.27;;;;;;;;;;4943577;29;20363;-59
2022/03/30 13:00:21;;;;;;;6.10;3.57;;;;;;;;;;4932846;29;20222;-60
2022/03/30 13:02:48;;;;;;;6.43;4.03;;;;;;;;;;4928083;29;20291;-59
2022/03/30 13:05:22;;;;;;;7.03;3.53;;;;;;;;;;4938024;29;20214;-59
2022/03/30 13:07:49;;;;;;;6.93;4.53;;;;;;;;;;4946838;29;20211;-60
2022/03/30 13:10:19;;;;;;;6.63;4.40;;;;;;;;;;4947159;29;20536;-60
2022/03/30 13:12:49;;;;;;;9.03;4.77;;;;;;;;;;4928549;29;20212;-60
2022/03/30 13:15:17;;;;;;;5.73;4.70;;;;;;;;;;4939598;29;20331;-60
2022/03/30 13:17:58;;;;;;;6.47;4.63;;;;;;;;;;4946185;29;20234;-60
2022/03/30 13:20:25;;;;;;;5.77;4.27;;;;;;;;;;4946312;29;20585;-58
2022/03/30 13:22:52;;;;;;;4.67;3.53;;;;;;;;;;4943508;29;20219;-58
2022/03/30 13:25:32;;;;;;;7.33;4.90;;;;;;;;;;4946087;29;20753;-58
2022/03/30 13:28:00;;;;;;;9.20;5.00;;;;;;;;;;4942321;28;20298;-58
2022/03/30 13:30:28;;;;;;;8.07;5.00;;;;;;;;;;4934562;29;20219;-58
2022/03/30 13:32:56;;;;;;;6.90;4.40;;;;;;;;;;4946152;29;20215;-61
2022/03/30 13:35:23;;;;;;;7.27;4.50;;;;;;;;;;4940499;29;20223;-58
2022/03/30 13:37:50;;;;;;;8.63;4.27;;;;;;;;;;4936042;29;20318;-58
2022/03/30 13:40:17;;;;;;;6.33;4.63;;;;;;;;;;4962095;28;20218;-58
2022/03/30 13:42:46;;;;;;;5.97;4.27;;;;;;;;;;4955386;28;20217;-59
2022/03/30 13:45:14;;;;;;;9.80;5.10;;;;;;;;;;4965821;28;20216;-59
2022/03/30 13:47:42;;;;;;;13.27;3.83;;;;;;;;;;4965895;28;20723;-60
2022/03/30 13:50:09;;;;;;;8.80;5.13;;;;;;;;;;4954494;28;20215;-59
2022/03/30 13:52:37;;;;;;;8.83;5.17;;;;;;;;;;4946000;29;20285;-59
2022/03/30 13:55:05;;;;;;;6.33;4.53;;;;;;;;;;4937755;29;20230;-59
2022/03/30 13:57:32;;;;;;;8.10;3.87;;;;;;;;;;4946770;29;20235;-59
2022/03/30 14:00:00;;;;;;;5.23;4.53;;;;;;;;;;4946278;29;20603;-59
2022/03/30 14:02:27;;;;;;;8.83;5.40;;;;;;;;;;4944683;29;20238;-60
2022/03/30 14:04:54;;;;;;;6.03;4.27;;;;;;;;;;4945773;29;20207;-59
2022/03/30 14:07:21;;;;;;;7.70;4.80;;;;;;;;;;4943821;29;20740;-59
2022/03/30 14:09:49;;;;;;;11.90;5.57;;;;;;;;;;4946293;29;20284;-59
2022/03/30 14:12:16;;;;;;;9.57;4.93;;;;;;;;;;4932303;29;20334;-59
2022/03/30 14:14:43;;;;;;;8.53;5.47;;;;;;;;;;4927227;29;20216;-59
2022/03/30 14:17:11;;;;;;;11.03;5.50;;;;;;;;;;4929162;29;20772;-59
2022/03/30 14:19:41;;;;;;;6.20;3.00;;;;;;;;;;4945841;29;20282;-59
2022/03/30 14:22:08;;;;;;;8.07;4.83;;;;;;;;;;4936205;29;21071;-60
2022/03/30 14:24:35;;;;;;;7.87;5.37;;;;;;;;;;4934802;29;20267;-59
2022/03/30 14:27:02;;;;;;;8.37;5.43;;;;;;;;;;4937762;28;20297;-58
2022/03/30 14:29:29;;;;;;;8.23;5.13;;;;;;;;;;4948799;28;20265;-58
2022/03/30 14:31:56;;;;;;;7.80;4.73;;;;;;;;;;4936405;29;20208;-58
2022/03/30 14:34:25;;;;;;;5.67;3.70;;;;;;;;;;4936501;29;20278;-58
2022/03/30 14:36:54;;;;;;;8.50;4.90;;;;;;;;;;4930547;29;20259;-58
2022/03/30 14:39:21;;;;;;;6.77;4.40;;;;;;;;;;4930266;29;20221;-60
2022/03/30 14:41:49;;;;;;;7.00;4.70;;;;;;;;;;4933074;29;20199;-58
2022/03/30 14:44:16;;;;;;;15.30;3.80;;;;;;;;;;4937684;29;20211;-58
2022/03/30 14:46:43;;;;;;;6.57;4.57;;;;;;;;;;4943635;29;20269;-58
2022/03/30 14:49:10;;;;;;;4.67;3.90;;;;;;;;;;4935700;29;20566;-58